createdAt,value
2018-05-26T00:02:54.766Z,102009.43
2018-05-26T00:05:56.833Z,102008.74
2018-05-26T00:09:00.051Z,102011.98
2018-05-26T00:12:03.018Z,102013.53
2018-05-26T00:15:05.096Z,102013.77
2018-05-26T00:18:07.172Z,102016.73
2018-05-26T00:21:09.220Z,102020.21
2018-05-26T00:24:12.322Z,102026.20
2018-05-26T00:27:14.379Z,102022.12
2018-05-26T00:30:16.456Z,102017.25
2018-05-26T00:33:18.538Z,102014.99
2018-05-26T00:36:20.583Z,102010.48
2018-05-26T00:39:22.663Z,102007.78
2018-05-26T00:42:24.732Z,102006.03
2018-05-26T00:45:26.811Z,102006.61
2018-05-26T00:48:30.003Z,102005.69
2018-05-26T00:51:32.063Z,102004.04
2018-05-26T00:54:34.123Z,102000.94
2018-05-26T00:57:36.117Z,101994.40
2018-05-26T01:00:38.174Z,101991.86
2018-05-26T01:03:42.188Z,101994.58
2018-05-26T01:06:44.566Z,101992.07
2018-05-26T01:09:46.534Z,101992.10
2018-05-26T01:12:48.575Z,101988.42
2018-05-26T01:15:50.691Z,101986.17
2018-05-26T01:18:52.746Z,101981.75
2018-05-26T01:21:54.804Z,101979.40
2018-05-26T01:24:56.881Z,101981.03
2018-05-26T01:27:58.971Z,101980.35
2018-05-26T01:31:02.031Z,101978.96
2018-05-26T01:34:04.105Z,101981.67
2018-05-26T01:37:06.203Z,101988.48
2018-05-26T01:40:08.316Z,101987.02
2018-05-26T01:43:10.332Z,101984.18
2018-05-26T01:46:12.469Z,101983.72
2018-05-26T01:49:14.566Z,101984.95
2018-05-26T01:52:16.622Z,101985.65
2018-05-26T01:55:18.806Z,101983.59
2018-05-26T01:58:20.836Z,101984.55
2018-05-26T02:01:22.919Z,101988.00
2018-05-26T02:04:25.027Z,101988.93
2018-05-26T02:07:27.177Z,101987.17
2018-05-26T02:10:29.231Z,101991.54
2018-05-26T02:13:31.300Z,101989.63
2018-05-26T02:16:33.396Z,101990.99
2018-05-26T02:19:35.459Z,101989.04
2018-05-26T02:22:37.629Z,101986.51
2018-05-26T02:25:39.679Z,101988.29
2018-05-26T02:28:42.869Z,101989.63
2018-05-26T02:31:44.934Z,101990.66
2018-05-26T02:34:47.025Z,101996.62
2018-05-26T02:37:49.080Z,101995.09
2018-05-26T02:40:51.184Z,101993.48
2018-05-26T02:43:53.233Z,101996.54
2018-05-26T02:46:55.302Z,101997.54
2018-05-26T02:49:57.381Z,101994.51
2018-05-26T02:52:59.440Z,101996.39
2018-05-26T02:56:01.514Z,102005.29
2018-05-26T02:59:03.563Z,102007.27
2018-05-26T03:02:05.680Z,102008.20
2018-05-26T03:05:13.459Z,102010.74
2018-05-26T03:08:21.378Z,102010.81
2018-05-26T03:11:29.068Z,102019.62
2018-05-26T03:14:36.958Z,102019.17
2018-05-26T03:17:39.099Z,102016.23
2018-05-26T03:20:41.184Z,102015.20
2018-05-26T03:23:43.268Z,102016.96
2018-05-26T03:26:45.341Z,102017.93
2018-05-26T03:29:47.401Z,102023.75
2018-05-26T03:32:49.455Z,102025.79
2018-05-26T03:35:51.543Z,102029.93
2018-05-26T03:38:53.605Z,102027.25
2018-05-26T03:41:55.662Z,102021.73
2018-05-26T03:44:57.728Z,102027.26
2018-05-26T03:47:59.841Z,102032.22
2018-05-26T03:51:03.199Z,102027.47
2018-05-26T03:54:07.315Z,102032.90
2018-05-26T03:59:22.976Z,102031.21
2018-05-26T04:02:24.997Z,102037.98
2018-05-26T04:05:27.189Z,102039.67
2018-05-26T04:08:29.220Z,102048.83
2018-05-26T04:11:32.232Z,102050.43
2018-05-26T04:14:34.424Z,102051.27
2018-05-26T04:17:36.481Z,102057.95
2018-05-26T04:20:38.600Z,102059.79
2018-05-26T04:23:40.733Z,102053.94
2018-05-26T04:26:42.805Z,102051.92
2018-05-26T04:29:44.923Z,102055.93
2018-05-26T04:32:47.033Z,102066.95
2018-05-26T04:35:49.093Z,102071.69
2018-05-26T04:38:51.190Z,102076.25
2018-05-26T04:41:53.384Z,102079.98
2018-05-26T04:44:57.673Z,102083.45
2018-05-26T04:47:59.738Z,102080.81
2018-05-26T04:51:02.951Z,102086.14
2018-05-26T04:54:04.915Z,102090.22
2018-05-26T04:57:07.088Z,102093.01
2018-05-26T05:00:09.412Z,102099.43
2018-05-26T05:03:11.579Z,102095.60
2018-05-26T05:06:13.698Z,102099.15
2018-05-26T05:09:15.639Z,102098.82
2018-05-26T05:12:17.686Z,102098.26
2018-05-26T05:15:19.759Z,102093.74
2018-05-26T05:18:21.828Z,102096.60
2018-05-26T05:21:23.876Z,102092.62
2018-05-26T05:24:26.228Z,102094.31
2018-05-26T05:27:28.339Z,102092.19
2018-05-26T05:30:30.491Z,102089.13
2018-05-26T05:33:34.384Z,102095.23
2018-05-26T05:36:36.483Z,102097.05
2018-05-26T05:39:38.786Z,102098.59
2018-05-26T05:42:41.053Z,102101.30
2018-05-26T05:45:44.152Z,102104.80
2018-05-26T05:48:46.236Z,102106.50
2018-05-26T05:51:48.287Z,102108.10
2018-05-26T05:54:50.415Z,102110.82
2018-05-26T05:57:52.594Z,102121.78
2018-05-26T06:00:55.491Z,102122.69
2018-05-26T06:03:57.624Z,102128.23
2018-05-26T06:06:59.680Z,102125.18
2018-05-26T06:10:01.937Z,102119.05
2018-05-26T06:13:04.035Z,102115.22
2018-05-26T06:16:06.054Z,102120.14
2018-05-26T06:19:08.292Z,102122.94
2018-05-26T06:22:10.379Z,102124.29
2018-05-26T06:25:12.480Z,102120.33
2018-05-26T06:28:14.700Z,102121.11
2018-05-26T06:31:16.812Z,102118.64
2018-05-26T06:34:18.854Z,102120.09
2018-05-26T06:37:21.012Z,102123.11
2018-05-26T06:40:24.227Z,102120.88
2018-05-26T06:43:26.308Z,102121.52
2018-05-26T06:46:28.708Z,102122.13
2018-05-26T06:49:30.878Z,102116.49
2018-05-26T06:52:32.891Z,102117.31
2018-05-26T06:55:34.985Z,102114.90
2018-05-26T06:58:37.114Z,102117.56
2018-05-26T07:01:39.159Z,102113.90
2018-05-26T07:04:41.698Z,102118.20
2018-05-26T07:07:43.779Z,102110.85
2018-05-26T07:10:45.744Z,102112.45
2018-05-26T07:13:47.824Z,102111.21
2018-05-26T07:16:49.871Z,102102.03
2018-05-26T07:19:51.916Z,102102.71
2018-05-26T07:22:56.138Z,102102.04
2018-05-26T07:25:58.271Z,102104.46
2018-05-26T07:29:02.672Z,102101.20
2018-05-26T07:32:06.916Z,102094.49
2018-05-26T07:35:08.955Z,102099.42
2018-05-26T07:38:11.028Z,102102.58
2018-05-26T07:41:13.190Z,102106.00
2018-05-26T07:44:15.247Z,102103.76
2018-05-26T07:47:17.222Z,102106.63
2018-05-26T07:50:19.318Z,102109.98
2018-05-26T07:53:21.429Z,102112.45
2018-05-26T07:56:23.573Z,102117.11
2018-05-26T07:59:25.817Z,102121.60
2018-05-26T08:02:29.376Z,102122.42
2018-05-26T08:05:31.546Z,102132.27
2018-05-26T08:08:33.744Z,102135.27
2018-05-26T08:11:35.891Z,102129.94
2018-05-26T08:14:37.989Z,102137.09
2018-05-26T08:17:40.036Z,102136.61
2018-05-26T08:20:42.067Z,102134.55
2018-05-26T08:23:44.024Z,102139.96
2018-05-26T08:26:46.304Z,102140.62
2018-05-26T08:29:48.426Z,102141.71
2018-05-26T08:32:50.512Z,102141.19
2018-05-26T08:35:52.584Z,102137.66
2018-05-26T08:38:55.743Z,102139.99
2018-05-26T08:41:57.889Z,102147.12
2018-05-26T08:45:00.010Z,102140.69
2018-05-26T08:48:02.104Z,102132.92
2018-05-26T08:51:04.146Z,102128.88
2018-05-26T08:54:06.395Z,102125.87
2018-05-26T08:57:08.479Z,102118.67
2018-05-26T09:00:10.851Z,102115.50
2018-05-26T09:03:13.459Z,102119.56
2018-05-26T09:06:15.757Z,102120.64
2018-05-26T09:09:17.883Z,102119.49
2018-05-26T09:12:20.961Z,102121.95
2018-05-26T09:15:23.855Z,102114.28
2018-05-26T09:18:26.020Z,102117.96
2018-05-26T09:21:28.223Z,102116.99
2018-05-26T09:24:30.299Z,102113.15
2018-05-26T09:27:32.379Z,102114.05
2018-05-26T09:30:34.535Z,102120.04
2018-05-26T09:33:36.579Z,102115.09
2018-05-26T09:36:38.771Z,102115.01
2018-05-26T09:39:41.030Z,102117.79
2018-05-26T09:42:43.119Z,102110.02
2018-05-26T09:45:45.200Z,102113.77
2018-05-26T09:48:52.787Z,102112.41
2018-05-26T09:51:55.492Z,102101.10
2018-05-26T09:54:57.656Z,102109.36
2018-05-26T09:57:59.809Z,102111.60
2018-05-26T10:01:06.151Z,102115.85
2018-05-26T10:04:08.292Z,102115.33
2018-05-26T10:07:10.415Z,102110.47
2018-05-26T10:10:12.556Z,102113.73
2018-05-26T10:13:14.681Z,102112.32
2018-05-26T10:16:16.808Z,102111.82
2018-05-26T10:19:18.941Z,102111.25
2018-05-26T10:22:21.049Z,102109.58
2018-05-26T10:25:23.175Z,102104.61
2018-05-26T10:28:25.196Z,102104.24
2018-05-26T10:31:27.259Z,102106.42
2018-05-26T10:34:29.348Z,102111.89
2018-05-26T10:37:31.301Z,102107.56
2018-05-26T10:40:33.496Z,102102.06
2018-05-26T10:43:35.647Z,102104.93
2018-05-26T10:46:37.779Z,102111.37
2018-05-26T10:49:40.097Z,102107.74
2018-05-26T10:52:42.161Z,102107.40
2018-05-26T10:55:44.350Z,102108.17
2018-05-26T10:58:46.476Z,102106.75
2018-05-26T11:01:48.536Z,102114.16
2018-05-26T11:04:51.643Z,102114.04
2018-05-26T11:07:53.575Z,102111.54
2018-05-26T11:10:55.692Z,102107.90
2018-05-26T11:13:58.046Z,102108.38
2018-05-26T11:17:00.167Z,102106.03
2018-05-26T11:20:02.338Z,102107.05
2018-05-26T11:23:05.373Z,102100.13
2018-05-26T11:26:07.409Z,102098.98
2018-05-26T11:29:09.287Z,102097.06
2018-05-26T11:32:11.412Z,102097.49
2018-05-26T11:35:13.444Z,102100.39
2018-05-26T11:38:15.519Z,102097.41
2018-05-26T11:41:17.579Z,102098.81
2018-05-26T11:44:19.639Z,102090.49
2018-05-26T11:47:22.652Z,102082.56
2018-05-26T11:50:24.720Z,102092.55
2018-05-26T11:53:26.835Z,102091.10
2018-05-26T11:56:29.147Z,102092.17
2018-05-26T11:59:31.239Z,102092.78
2018-05-26T12:02:33.276Z,102088.66
2018-05-26T12:05:35.387Z,102086.88
2018-05-26T12:08:37.527Z,102092.32
2018-05-26T12:11:39.600Z,102096.99
2018-05-26T12:14:41.655Z,102091.65
2018-05-26T12:17:44.771Z,102095.05
2018-05-26T12:20:46.974Z,102093.46
2018-05-26T12:23:50.199Z,102086.16
2018-05-26T12:26:52.367Z,102090.64
2018-05-26T12:29:54.419Z,102082.85
2018-05-26T12:33:00.028Z,102078.73
2018-05-26T12:36:02.112Z,102086.16
2018-05-26T12:39:05.412Z,102082.42
2018-05-26T12:42:07.449Z,102078.07
2018-05-26T12:45:09.548Z,102074.53
2018-05-26T12:48:11.817Z,102077.18
2018-05-26T12:51:15.116Z,102074.83
2018-05-26T12:54:17.160Z,102069.06
2018-05-26T12:57:19.236Z,102074.06
2018-05-26T13:00:21.328Z,102065.17
2018-05-26T13:03:23.536Z,102059.38
2018-05-26T13:06:25.642Z,102061.49
2018-05-26T13:09:27.776Z,102059.62
2018-05-26T13:12:29.913Z,102059.15
2018-05-26T13:15:32.131Z,102053.70
2018-05-26T13:18:34.152Z,102046.49
2018-05-26T13:21:36.415Z,102044.22
2018-05-26T13:24:38.489Z,102040.46
2018-05-26T13:27:41.484Z,102043.36
2018-05-26T13:30:43.786Z,102042.31
2018-05-26T13:33:45.732Z,102040.89
2018-05-26T13:36:48.104Z,102041.83
2018-05-26T13:39:50.148Z,102035.95
2018-05-26T13:42:52.130Z,102031.70
2018-05-26T13:45:54.201Z,102029.00
2018-05-26T13:48:56.266Z,102026.55
2018-05-26T13:51:59.088Z,102021.77
2018-05-26T13:55:01.031Z,102024.30
2018-05-26T13:58:03.111Z,102021.88
2018-05-26T14:01:05.168Z,102018.70
2018-05-26T14:04:07.333Z,102017.52
2018-05-26T14:07:09.444Z,102017.37
2018-05-26T14:10:11.467Z,102013.13
2018-05-26T14:13:17.115Z,102015.48
2018-05-26T14:16:19.138Z,102015.56
2018-05-26T14:19:21.136Z,102018.44
2018-05-26T14:22:23.220Z,102016.58
2018-05-26T14:25:25.200Z,102021.30
2018-05-26T14:28:29.311Z,102026.39
2018-05-26T14:31:31.782Z,102019.94
2018-05-26T14:34:34.261Z,102015.34
2018-05-26T14:37:36.823Z,102016.93
2018-05-26T14:40:39.332Z,102017.89
2018-05-26T14:43:42.168Z,102014.53
2018-05-26T14:46:44.433Z,102008.86
2018-05-26T14:49:46.996Z,102008.06
2018-05-26T14:52:49.388Z,102014.64
2018-05-26T14:55:51.475Z,102009.48
2018-05-26T14:58:53.984Z,102010.26
2018-05-26T15:01:56.497Z,102008.00
2018-05-26T15:04:59.972Z,102004.64
2018-05-26T15:08:02.439Z,101994.14
2018-05-26T15:11:06.020Z,101991.47
2018-05-26T15:14:08.535Z,101999.87
2018-05-26T15:17:11.090Z,102006.46
2018-05-26T15:20:13.612Z,102013.21
2018-05-26T15:23:16.156Z,102015.35
2018-05-26T15:26:18.527Z,102006.09
2018-05-26T15:29:21.124Z,102007.60
2018-05-26T15:32:23.606Z,101999.44
2018-05-26T15:35:25.691Z,101998.25
2018-05-26T15:38:29.075Z,101994.27
2018-05-26T15:41:31.247Z,101997.82
2018-05-26T15:44:33.652Z,101998.20
2018-05-26T15:47:36.290Z,102003.04
2018-05-26T15:50:38.823Z,102003.29
2018-05-26T15:53:41.292Z,102005.05
2018-05-26T15:56:43.356Z,101998.94
2018-05-26T15:59:45.859Z,101999.15
2018-05-26T16:02:48.364Z,101999.10
2018-05-26T16:05:51.788Z,101987.48
2018-05-26T16:08:54.375Z,101983.43
2018-05-26T16:11:59.351Z,101979.79
2018-05-26T16:15:01.825Z,101981.83
2018-05-26T16:18:04.280Z,101974.98
2018-05-26T16:21:06.719Z,101976.14
2018-05-26T16:24:08.820Z,101971.01
2018-05-26T16:27:11.213Z,101964.62
2018-05-26T16:30:13.342Z,101969.70
2018-05-26T16:33:15.473Z,101968.48
2018-05-26T16:36:17.698Z,101970.23
2018-05-26T16:39:19.769Z,101972.55
2018-05-26T16:42:22.546Z,101968.23
2018-05-26T16:45:25.724Z,101966.31
2018-05-26T16:48:27.832Z,101960.40
2018-05-26T16:51:30.118Z,101962.71
2018-05-26T16:54:34.500Z,101956.48
2018-05-26T16:57:37.680Z,101961.96
2018-05-26T17:00:39.788Z,101959.67
2018-05-26T17:03:42.006Z,101960.45
2018-05-26T17:06:45.156Z,101961.08
2018-05-26T17:09:47.116Z,101955.05
2018-05-26T17:12:49.176Z,101955.57
2018-05-26T17:15:51.265Z,101952.19
2018-05-26T17:18:53.346Z,101956.12
2018-05-26T17:21:55.301Z,101956.19
2018-05-26T17:24:57.367Z,101959.27
2018-05-26T17:27:59.485Z,101966.43
2018-05-26T17:31:01.660Z,101970.04
2018-05-26T17:34:03.908Z,101967.61
2018-05-26T17:37:07.129Z,101967.08
2018-05-26T17:40:09.199Z,101968.69
2018-05-26T17:43:11.297Z,101969.91
2018-05-26T17:46:13.450Z,101969.81
2018-05-26T17:49:15.769Z,101971.91
2018-05-26T17:52:17.830Z,101976.82
2018-05-26T17:55:19.911Z,101971.91
2018-05-26T17:58:22.186Z,101977.68
2018-05-26T18:01:24.276Z,101977.39
2018-05-26T18:04:26.307Z,101976.72
2018-05-26T18:07:28.476Z,101980.06
2018-05-26T18:10:30.473Z,101988.02
2018-05-26T18:13:32.467Z,101987.86
2018-05-26T18:16:34.623Z,101993.80
2018-05-26T18:19:37.820Z,101995.33
2018-05-26T18:22:39.871Z,102000.03
2018-05-26T18:25:41.975Z,102000.52
2018-05-26T18:28:44.080Z,102006.75
2018-05-26T18:31:46.205Z,102008.28
2018-05-26T18:34:49.341Z,102010.68
2018-05-26T18:37:51.398Z,102011.04
2018-05-26T18:40:53.459Z,102017.48
2018-05-26T18:43:55.624Z,102018.82
2018-05-26T18:46:57.722Z,102018.96
2018-05-26T18:49:59.809Z,102017.23
2018-05-26T18:53:01.970Z,102023.80
2018-05-26T18:56:04.011Z,102029.03
2018-05-26T18:59:07.119Z,102024.47
2018-05-26T19:02:09.327Z,102022.57
2018-05-26T19:05:11.441Z,102026.19
2018-05-26T19:08:15.544Z,102034.67
2018-05-26T19:11:18.014Z,102037.62
2018-05-26T19:14:20.118Z,102037.48
2018-05-26T19:17:22.167Z,102039.48
2018-05-26T19:20:24.256Z,102043.67
2018-05-26T19:23:26.303Z,102043.52
2018-05-26T19:26:28.374Z,102042.65
2018-05-26T19:29:30.371Z,102043.75
2018-05-26T19:32:32.591Z,102044.61
2018-05-26T19:35:34.783Z,102043.36
2018-05-26T19:38:37.892Z,102047.29
2018-05-26T19:41:40.988Z,102051.00
2018-05-26T19:44:43.059Z,102052.13
2018-05-26T19:47:47.487Z,102055.46
2018-05-26T19:50:49.551Z,102061.50
2018-05-26T19:53:51.559Z,102061.39
2018-05-26T19:56:53.579Z,102063.26
2018-05-26T19:59:55.615Z,102071.27
2018-05-26T20:02:57.700Z,102078.04
2018-05-26T20:05:59.693Z,102082.86
2018-05-26T20:09:02.950Z,102088.97
2018-05-26T20:12:05.119Z,102096.44
2018-05-26T20:15:07.699Z,102091.61
2018-05-26T20:18:09.659Z,102097.65
2018-05-26T20:21:11.789Z,102096.29
2018-05-26T20:24:13.747Z,102099.76
2018-05-26T20:27:15.870Z,102104.48
2018-05-26T20:30:17.955Z,102107.19
2018-05-26T20:33:20.103Z,102110.62
2018-05-26T20:36:22.112Z,102110.49
2018-05-26T20:39:24.345Z,102105.47
2018-05-26T20:42:26.516Z,102104.80
2018-05-26T20:45:28.601Z,102097.99
2018-05-26T20:48:30.889Z,102099.10
2018-05-26T20:51:34.133Z,102102.08
2018-05-26T20:54:36.307Z,102097.47
2018-05-26T20:57:38.839Z,102091.03
2018-05-26T21:00:40.913Z,102084.52
2018-05-26T21:03:43.148Z,102077.51
2018-05-26T21:06:45.261Z,102075.29
2018-05-26T21:09:47.680Z,102073.43
2018-05-26T21:12:49.797Z,102072.46
2018-05-26T21:15:51.901Z,102070.84
2018-05-26T21:18:54.120Z,102070.34
2018-05-26T21:21:56.706Z,102073.62
2018-05-26T21:24:58.791Z,102074.15
2018-05-26T21:28:00.855Z,102073.66
2018-05-26T21:31:03.338Z,102070.11
2018-05-26T21:34:07.266Z,102066.40
2018-05-26T21:37:09.315Z,102064.39
2018-05-26T21:40:11.394Z,102060.89
2018-05-26T21:43:13.497Z,102058.16
2018-05-26T21:46:15.508Z,102057.25
2018-05-26T21:49:17.584Z,102060.19
2018-05-26T21:52:19.678Z,102054.15
2018-05-26T21:55:21.723Z,102053.89
2018-05-26T21:58:23.792Z,102063.34
2018-05-26T22:01:25.848Z,102067.44
2018-05-26T22:04:27.840Z,102068.59
2018-05-26T22:07:30.033Z,102070.80
2018-05-26T22:10:32.059Z,102062.11
2018-05-26T22:13:35.414Z,102067.59
2018-05-26T22:16:37.361Z,102072.05
2018-05-26T22:19:39.540Z,102069.35
2018-05-26T22:22:41.555Z,102081.31
2018-05-26T22:25:43.628Z,102082.73
2018-05-26T22:28:45.687Z,102087.37
2018-05-26T22:31:47.663Z,102092.11
2018-05-26T22:34:49.759Z,102098.35
2018-05-26T22:37:53.593Z,102094.45
2018-05-26T22:40:55.608Z,102100.49
2018-05-26T22:43:57.685Z,102102.13
2018-05-26T22:46:59.791Z,102111.49
2018-05-26T22:50:01.828Z,102114.29
2018-05-26T22:53:05.803Z,102114.16
2018-05-26T22:56:07.825Z,102120.69
2018-05-26T22:59:09.879Z,102111.65
2018-05-26T23:02:11.945Z,102106.67
2018-05-26T23:05:14.048Z,102101.32
2018-05-26T23:08:16.903Z,102100.86
2018-05-26T23:11:18.999Z,102095.15
2018-05-26T23:14:22.343Z,102087.41
2018-05-26T23:17:24.295Z,102083.63
2018-05-26T23:20:26.416Z,102078.34
2018-05-26T23:23:28.492Z,102076.98
2018-05-26T23:26:30.559Z,102069.87
2018-05-26T23:29:33.651Z,102065.79
2018-05-26T23:32:35.687Z,102056.90
2018-05-26T23:35:37.745Z,102051.17
2018-05-26T23:38:39.860Z,102049.45
2018-05-26T23:41:41.884Z,102048.15
2018-05-26T23:44:43.852Z,102042.22
2018-05-26T23:47:45.968Z,102047.37
2018-05-26T23:50:48.023Z,102039.20
2018-05-26T23:53:50.106Z,102037.49
2018-05-26T23:56:52.299Z,102028.55
2018-05-26T23:59:54.289Z,102027.49
